createdAt,value
2023-05-19T00:02:33.882Z,95946.74
2023-05-19T00:10:58.497Z,95942.98
2023-05-19T00:19:22.419Z,95940.77
2023-05-19T00:27:45.446Z,95945.48
2023-05-19T00:36:09.028Z,95940.83
2023-05-19T00:44:31.983Z,95935.70
2023-05-19T00:52:56.146Z,95919.83
2023-05-19T01:01:21.720Z,95875.68
2023-05-19T01:09:47.174Z,95841.73
2023-05-19T01:18:16.756Z,95851.32
2023-05-19T01:26:58.503Z,95850.23
2023-05-19T01:35:25.073Z,95839.00
2023-05-19T01:43:49.688Z,95818.99
2023-05-19T01:52:12.702Z,95814.00
2023-05-19T02:01:12.587Z,95816.51
2023-05-19T02:09:35.760Z,95827.20
2023-05-19T02:18:00.314Z,95846.73
2023-05-19T02:26:23.981Z,95839.77
2023-05-19T02:34:46.896Z,95828.45
2023-05-19T02:43:09.820Z,95818.93
2023-05-19T02:51:32.842Z,95824.52
2023-05-19T02:59:56.381Z,95817.03
2023-05-19T03:08:19.867Z,95818.84
2023-05-19T03:16:42.892Z,95818.58
2023-05-19T03:25:06.114Z,95821.44
2023-05-19T03:33:30.052Z,95849.55
2023-05-19T03:41:53.455Z,95857.48
2023-05-19T03:50:16.590Z,95862.62
2023-05-19T03:58:57.990Z,95887.66
2023-05-19T04:07:20.913Z,95921.31
2023-05-19T04:15:44.047Z,95948.52
2023-05-19T04:24:07.253Z,95982.71
2023-05-19T04:32:31.120Z,96012.04
2023-05-19T04:40:56.471Z,96028.90
2023-05-19T04:49:21.060Z,96054.71
2023-05-19T04:57:44.116Z,96106.31
2023-05-19T05:06:07.886Z,96171.00
2023-05-19T05:14:31.191Z,96270.23
2023-05-19T05:22:54.561Z,96281.27
2023-05-19T05:31:18.309Z,96277.65
2023-05-19T05:39:41.512Z,96312.34
2023-05-19T05:48:05.035Z,96357.84
2023-05-19T05:56:28.751Z,96438.91
2023-05-19T06:04:54.218Z,96477.03
2023-05-19T06:13:22.362Z,96520.19
2023-05-19T06:21:45.674Z,96536.16
2023-05-19T06:30:09.857Z,96544.70
2023-05-19T06:38:41.548Z,96543.69
2023-05-19T06:47:04.794Z,96537.70
2023-05-19T06:55:27.907Z,96558.23
2023-05-19T07:03:52.537Z,96581.58
2023-05-19T07:12:17.390Z,96643.86
2023-05-19T07:20:41.127Z,96678.98
2023-05-19T07:29:06.702Z,96703.53
2023-05-19T07:37:29.603Z,96777.85
2023-05-19T07:45:53.646Z,96824.70
2023-05-19T07:54:16.843Z,96849.60
2023-05-19T08:02:39.963Z,96869.21
2023-05-19T08:11:04.784Z,96921.92
2023-05-19T08:19:27.862Z,96958.19
2023-05-19T08:27:51.103Z,96995.59
2023-05-19T08:36:14.219Z,97052.46
2023-05-19T08:44:38.243Z,97140.23
2023-05-19T08:53:28.965Z,97176.63
2023-05-19T09:01:55.715Z,97280.19
2023-05-19T09:10:18.854Z,97307.65
2023-05-19T09:18:55.041Z,97277.84
2023-05-19T09:27:23.076Z,97283.65
2023-05-19T09:35:49.219Z,97333.38
2023-05-19T09:44:30.065Z,97344.48
2023-05-19T09:52:53.860Z,97376.91
2023-05-19T10:01:17.380Z,97396.84
2023-05-19T10:09:42.914Z,97390.19
2023-05-19T10:18:09.261Z,97446.90
2023-05-19T10:26:33.834Z,97447.92
2023-05-19T10:35:21.637Z,97468.24
2023-05-19T10:44:20.031Z,97430.92
2023-05-19T10:52:44.787Z,97435.58
2023-05-19T11:01:15.805Z,97556.52
2023-05-19T11:09:43.368Z,97678.70
2023-05-19T11:18:06.502Z,97704.52
2023-05-19T11:26:43.751Z,97761.16
2023-05-19T11:35:21.980Z,97759.59
2023-05-19T11:43:48.494Z,97702.66
2023-05-19T11:52:49.049Z,97689.16
2023-05-19T12:01:53.964Z,97717.25
2023-05-19T12:11:18.198Z,97715.66
2023-05-19T12:20:19.358Z,97698.11
2023-05-19T12:39:12.612Z,97939.65
2023-05-19T12:47:36.564Z,98018.11
2023-05-19T12:56:00.099Z,97974.42
2023-05-19T13:04:24.878Z,97937.09
2023-05-19T13:12:47.952Z,97890.34
2023-05-19T13:21:10.936Z,97919.27
2023-05-19T13:29:33.910Z,97931.08
2023-05-19T13:37:56.925Z,97891.56
2023-05-19T13:46:24.370Z,97860.08
2023-05-19T13:54:56.884Z,97812.89
2023-05-19T14:03:20.181Z,97790.13
2023-05-19T14:11:43.469Z,97784.61
2023-05-19T14:20:07.497Z,97780.13
2023-05-19T14:28:30.438Z,97757.70
2023-05-19T14:36:53.576Z,97750.51
2023-05-19T14:45:16.659Z,97744.79
2023-05-19T14:53:39.637Z,97745.84
2023-05-19T15:02:02.526Z,97742.45
2023-05-19T15:10:25.476Z,97768.91
2023-05-19T15:18:48.434Z,97795.58
2023-05-19T15:27:11.817Z,97772.46
2023-05-19T15:35:34.729Z,97757.92
2023-05-19T15:44:00.538Z,97766.92
2023-05-19T15:52:23.826Z,97785.08
2023-05-19T16:00:46.821Z,97803.45
2023-05-19T16:09:09.778Z,97779.55
2023-05-19T16:17:32.873Z,97761.53
2023-05-19T16:25:57.453Z,97735.71
2023-05-19T16:34:20.447Z,97763.19
2023-05-19T16:42:43.347Z,97750.64
2023-05-19T16:51:06.513Z,97698.90
2023-05-19T16:59:29.412Z,97656.56
2023-05-19T17:07:52.410Z,97629.46
2023-05-19T17:16:16.075Z,97614.89
2023-05-19T17:24:39.776Z,97618.96
2023-05-19T17:33:02.765Z,97610.90
2023-05-19T17:41:26.461Z,97595.18
2023-05-19T17:49:53.023Z,97556.70
2023-05-19T17:58:16.263Z,97517.58
2023-05-19T18:06:40.910Z,97501.58
2023-05-19T18:15:04.138Z,97504.06
2023-05-19T18:23:27.057Z,97504.05
2023-05-19T18:31:49.974Z,97484.88
2023-05-19T18:40:12.995Z,97455.89
2023-05-19T18:48:36.193Z,97415.91
2023-05-19T18:56:59.662Z,97403.61
2023-05-19T19:05:22.640Z,97414.55
2023-05-19T19:13:45.904Z,97407.05
2023-05-19T19:22:08.872Z,97407.37
2023-05-19T19:30:32.297Z,97411.14
2023-05-19T19:38:55.455Z,97430.69
2023-05-19T19:47:18.352Z,97432.46
2023-05-19T19:55:41.397Z,97436.29
2023-05-19T20:04:04.583Z,97452.35
2023-05-19T20:12:27.648Z,97438.55
2023-05-19T20:20:50.885Z,97416.58
2023-05-19T20:29:13.805Z,97412.00
2023-05-19T20:37:36.826Z,97422.60
2023-05-19T20:46:01.445Z,97423.73
2023-05-19T20:54:24.677Z,97423.46
2023-05-19T21:02:47.702Z,97446.09
2023-05-19T21:11:10.661Z,97447.96
2023-05-19T21:19:36.479Z,97426.17
2023-05-19T21:27:59.412Z,97394.23
2023-05-19T21:36:23.374Z,97385.69
2023-05-19T21:44:46.584Z,97374.83
2023-05-19T21:53:09.493Z,97357.77
2023-05-19T22:01:32.348Z,97373.19
2023-05-19T22:09:55.591Z,97377.56
2023-05-19T22:18:18.590Z,97356.66
2023-05-19T22:26:44.249Z,97343.75
2023-05-19T22:35:08.512Z,97341.30
2023-05-19T22:43:31.524Z,97355.23
2023-05-19T22:51:54.368Z,97353.23
2023-05-19T23:00:21.006Z,97342.20
2023-05-19T23:08:46.835Z,97342.07
2023-05-19T23:17:09.900Z,97316.88
2023-05-19T23:25:32.997Z,97316.75
2023-05-19T23:33:56.077Z,97322.38
2023-05-19T23:42:19.084Z,97310.35
2023-05-19T23:50:42.060Z,97312.86
2023-05-19T23:59:04.968Z,97301.89
